Fontana, Wisconsin
Current Conditions -  °F | °C
As of 10:55 PM on Saturday 22 Nov 2014 (Local Time) from KBUU Reporting Station
Overcast Overcast  
Wind Chill: 42°   Ceiling: 4000
Heat Index: 47°   Visibility: 10mi
Dew Point: 45°   Wind: 10mph
Humidity: 92%   Direction: 200°SSW
Pressure: 29.79"   Gusts: 16mph
Location:  42.55°N, 88.57°W
Report Text: KBUU 230455Z AUTO 20009G14KT 10SM SCT024 SCT029 OVC040 08/07 A2979 RMK AO2 T00820070
Loading
Personal Weather Stations






























Interactive Weather Map New forecast layout! Learn more

10-Day Weather Forecast

Advertisements
Track Severe Weather on mobile